createdAt,value
2022-09-20T00:01:43.067Z,12.95
2022-09-20T00:04:12.895Z,12.79
2022-09-20T00:06:41.275Z,13.03
2022-09-20T00:09:10.003Z,13.05
2022-09-20T00:11:38.588Z,13.10
2022-09-20T00:14:10.034Z,12.70
2022-09-20T00:16:42.034Z,12.90
2022-09-20T00:19:18.405Z,13.00
2022-09-20T00:21:46.962Z,12.88
2022-09-20T00:24:15.362Z,13.17
2022-09-20T00:26:43.869Z,13.11
2022-09-20T00:29:12.843Z,13.19
2022-09-20T00:31:43.127Z,13.15
2022-09-20T00:34:30.356Z,12.65
2022-09-20T00:36:59.044Z,13.15
2022-09-20T00:39:27.705Z,12.95
2022-09-20T00:41:56.044Z,12.96
2022-09-20T00:44:57.431Z,13.11
2022-09-20T00:47:40.080Z,13.15
2022-09-20T00:50:27.483Z,13.60
2022-09-20T00:52:59.695Z,13.49
2022-09-20T00:55:30.199Z,13.05
2022-09-20T00:57:59.935Z,12.99
2022-09-20T01:00:29.145Z,12.95
2022-09-20T01:03:00.442Z,13.11
2022-09-20T01:05:30.811Z,13.13
2022-09-20T01:07:59.731Z,13.08
2022-09-20T01:10:28.624Z,13.16
2022-09-20T01:12:57.130Z,13.28
2022-09-20T01:15:28.160Z,13.26
2022-09-20T01:18:00.377Z,13.11
2022-09-20T01:20:33.536Z,13.15
2022-09-20T01:23:28.272Z,13.04
2022-09-20T01:26:35.038Z,13.40
2022-09-20T01:29:14.206Z,13.19
2022-09-20T01:31:47.663Z,13.21
2022-09-20T01:34:19.280Z,13.18
2022-09-20T01:36:53.367Z,13.07
2022-09-20T01:39:32.999Z,13.43
2022-09-20T01:42:05.686Z,13.40
2022-09-20T01:44:41.760Z,13.09
2022-09-20T01:47:28.989Z,13.33
2022-09-20T01:50:04.118Z,13.25
2022-09-20T01:52:46.457Z,12.76
2022-09-20T01:55:51.975Z,12.99
2022-09-20T01:59:07.289Z,13.21
2022-09-20T02:02:07.724Z,13.35
2022-09-20T02:05:10.248Z,13.40
2022-09-20T02:08:10.154Z,13.16
2022-09-20T02:10:55.325Z,13.24
2022-09-20T02:13:31.872Z,13.24
2022-09-20T02:16:17.448Z,13.04
2022-09-20T02:19:07.932Z,13.48
2022-09-20T02:21:40.088Z,13.33
2022-09-20T02:24:23.314Z,13.58
2022-09-20T02:27:03.963Z,13.26
2022-09-20T02:29:43.627Z,13.11
2022-09-20T02:32:29.624Z,13.23
2022-09-20T02:35:40.634Z,13.58
2022-09-20T02:38:24.018Z,13.54
2022-09-20T02:41:07.357Z,13.89
2022-09-20T02:43:42.071Z,13.94
2022-09-20T02:46:18.403Z,13.51
2022-09-20T02:48:56.102Z,13.47
2022-09-20T02:51:32.485Z,13.53
2022-09-20T02:54:14.254Z,13.32
2022-09-20T02:56:54.417Z,13.21
2022-09-20T02:59:31.152Z,12.98
2022-09-20T03:02:09.345Z,13.09
2022-09-20T03:04:53.027Z,13.29
2022-09-20T03:07:33.998Z,13.38
2022-09-20T03:10:14.149Z,12.99
2022-09-20T03:12:54.243Z,13.62
2022-09-20T03:15:32.227Z,13.07
2022-09-20T03:18:09.608Z,13.16
2022-09-20T03:20:49.281Z,13.27
2022-09-20T03:23:38.437Z,13.10
2022-09-20T03:26:18.271Z,13.17
2022-09-20T03:28:59.336Z,13.18
2022-09-20T03:31:42.513Z,13.23
2022-09-20T03:34:24.460Z,13.32
2022-09-20T03:37:08.069Z,13.27
2022-09-20T03:40:18.286Z,13.35
2022-09-20T03:42:50.009Z,13.31
2022-09-20T03:45:50.412Z,13.63
2022-09-20T03:48:53.956Z,13.65
2022-09-20T03:51:33.753Z,13.64
2022-09-20T03:54:44.623Z,13.83
2022-09-20T03:57:35.918Z,13.42
2022-09-20T04:00:23.668Z,13.96
2022-09-20T04:03:04.604Z,13.53
2022-09-20T04:05:45.918Z,13.50
2022-09-20T04:08:25.246Z,13.46
2022-09-20T04:11:08.344Z,13.48
2022-09-20T04:13:40.469Z,13.62
2022-09-20T04:16:23.915Z,13.89
2022-09-20T04:18:57.872Z,13.71
2022-09-20T04:21:33.186Z,13.77
2022-09-20T04:24:09.995Z,13.54
2022-09-20T04:26:45.631Z,13.81
2022-09-20T04:29:34.815Z,14.11
2022-09-20T04:32:15.173Z,14.02
2022-09-20T04:35:05.263Z,13.59
2022-09-20T04:37:36.599Z,14.43
2022-09-20T04:40:16.690Z,13.93
2022-09-20T04:43:30.591Z,14.30
2022-09-20T04:46:35.755Z,14.41
2022-09-20T04:49:43.269Z,14.40
2022-09-20T04:52:38.239Z,14.02
2022-09-20T04:55:52.993Z,14.38
2022-09-20T04:58:50.805Z,15.23
2022-09-20T05:02:03.707Z,14.95
2022-09-20T05:05:16.208Z,14.99
2022-09-20T05:08:20.911Z,14.86
2022-09-20T05:11:15.947Z,15.19
2022-09-20T05:14:01.228Z,14.90
2022-09-20T05:16:46.741Z,15.19
2022-09-20T05:19:29.618Z,14.82
2022-09-20T05:22:27.512Z,14.51
2022-09-20T05:25:07.796Z,14.25
2022-09-20T05:27:44.519Z,14.47
2022-09-20T05:30:33.788Z,14.48
2022-09-20T05:33:13.480Z,14.28
2022-09-20T05:35:48.616Z,14.72
2022-09-20T05:41:15.852Z,14.42
2022-09-20T05:43:54.131Z,14.32
2022-09-20T05:46:35.075Z,15.32
2022-09-20T05:49:13.605Z,15.26
2022-09-20T05:51:59.801Z,15.34
2022-09-20T05:55:02.173Z,15.49
2022-09-20T05:57:46.126Z,15.71
2022-09-20T06:00:18.029Z,15.28
2022-09-20T06:02:55.309Z,15.10
2022-09-20T06:05:35.243Z,15.29
2022-09-20T06:08:27.551Z,15.60
2022-09-20T06:11:23.840Z,15.17
2022-09-20T06:14:06.236Z,15.87
2022-09-20T06:16:45.113Z,15.11
2022-09-20T06:19:24.920Z,15.54
2022-09-20T06:21:55.487Z,15.38
2022-09-20T06:24:36.835Z,15.35
2022-09-20T06:27:12.391Z,15.23
2022-09-20T06:29:45.963Z,15.76
2022-09-20T06:32:18.715Z,15.90
2022-09-20T06:34:48.796Z,15.69
2022-09-20T06:37:48.430Z,15.23
2022-09-20T06:40:54.461Z,15.77
2022-09-20T06:43:24.379Z,15.82
2022-09-20T06:45:52.984Z,16.33
2022-09-20T06:48:21.438Z,16.46
2022-09-20T06:50:50.020Z,16.09
2022-09-20T06:53:21.113Z,15.73
2022-09-20T06:55:50.106Z,15.83
2022-09-20T06:58:18.614Z,15.77
2022-09-20T07:00:48.507Z,15.88
2022-09-20T07:03:19.686Z,16.30
2022-09-20T07:05:48.416Z,15.87
2022-09-20T07:08:17.794Z,16.06
2022-09-20T07:10:46.361Z,16.39
2022-09-20T07:13:15.020Z,16.82
2022-09-20T07:15:43.544Z,17.42
2022-09-20T07:18:13.352Z,17.03
2022-09-20T07:20:41.988Z,17.13
2022-09-20T07:23:10.425Z,17.57
2022-09-20T07:25:39.177Z,16.70
2022-09-20T07:28:07.676Z,16.42
2022-09-20T07:30:36.222Z,16.70
2022-09-20T07:33:04.708Z,16.85
2022-09-20T07:35:34.685Z,17.02
2022-09-20T07:38:03.218Z,17.31
2022-09-20T07:40:32.187Z,17.41
2022-09-20T07:43:00.645Z,17.27
2022-09-20T07:45:29.471Z,17.47
2022-09-20T07:47:58.995Z,17.03
2022-09-20T07:50:27.557Z,17.03
2022-09-20T07:52:59.160Z,17.23
2022-09-20T07:55:27.756Z,17.16
2022-09-20T07:57:56.371Z,16.70
2022-09-20T08:00:24.794Z,17.17
2022-09-20T08:03:00.555Z,16.90
2022-09-20T08:05:29.064Z,16.43
2022-09-20T08:08:00.852Z,17.13
2022-09-20T08:10:29.443Z,17.23
2022-09-20T08:15:46.625Z,17.10
2022-09-20T08:18:17.181Z,17.45
2022-09-20T08:20:45.635Z,17.30
2022-09-20T08:23:51.435Z,17.93
2022-09-20T08:26:57.036Z,18.46
2022-09-20T08:30:02.923Z,18.59
2022-09-20T08:33:27.325Z,19.11
2022-09-20T08:36:17.945Z,19.15
2022-09-20T08:41:40.204Z,18.69
2022-09-20T08:44:17.048Z,18.85
2022-09-20T08:46:51.452Z,17.70
2022-09-20T08:49:27.238Z,18.03
2022-09-20T08:51:58.324Z,18.07
2022-09-20T08:54:32.325Z,17.59
2022-09-20T08:57:05.442Z,17.52
2022-09-20T08:59:34.785Z,17.78
2022-09-20T09:02:05.012Z,17.82
2022-09-20T09:04:37.422Z,18.67
2022-09-20T09:07:06.092Z,18.77
2022-09-20T09:09:38.051Z,18.87
2022-09-20T09:12:07.087Z,19.39
2022-09-20T09:14:55.237Z,19.97
2022-09-20T09:17:27.856Z,18.88
2022-09-20T09:20:00.481Z,18.72
2022-09-20T09:22:35.336Z,19.40
2022-09-20T09:25:25.931Z,18.63
2022-09-20T09:27:58.511Z,18.56
2022-09-20T09:30:30.617Z,18.77
2022-09-20T09:33:25.304Z,18.50
2022-09-20T09:35:56.951Z,18.67
2022-09-20T09:38:28.195Z,18.30
2022-09-20T09:40:59.421Z,18.47
2022-09-20T09:43:30.500Z,18.19
2022-09-20T09:46:18.654Z,17.85
2022-09-20T09:49:12.316Z,17.68
2022-09-20T09:51:43.482Z,17.40
2022-09-20T09:54:19.065Z,17.76
2022-09-20T09:56:58.335Z,18.03
2022-09-20T09:59:40.506Z,18.37
2022-09-20T10:02:24.556Z,18.58
2022-09-20T10:05:02.477Z,18.70
2022-09-20T10:07:39.804Z,18.30
2022-09-20T10:10:21.333Z,18.02
2022-09-20T10:13:03.464Z,18.07
2022-09-20T10:15:36.908Z,18.47
2022-09-20T10:18:22.476Z,18.69
2022-09-20T10:21:13.373Z,18.65
2022-09-20T10:24:06.301Z,18.20
2022-09-20T10:26:54.851Z,18.23
2022-09-20T10:29:31.564Z,18.65
2022-09-20T10:32:15.490Z,17.28
2022-09-20T10:35:09.669Z,17.82
2022-09-20T10:37:51.639Z,17.57
2022-09-20T10:40:50.862Z,17.57
2022-09-20T10:43:32.690Z,17.57
2022-09-20T10:46:31.441Z,17.37
2022-09-20T10:49:08.386Z,16.96
2022-09-20T10:51:48.752Z,17.54
2022-09-20T10:54:38.611Z,17.16
2022-09-20T10:57:26.726Z,17.12
2022-09-20T11:00:06.576Z,17.57
2022-09-20T11:02:47.293Z,17.49
2022-09-20T11:05:44.777Z,17.15
2022-09-20T11:08:19.038Z,17.08
2022-09-20T11:10:56.296Z,17.11
2022-09-20T11:13:33.079Z,17.85
2022-09-20T11:16:07.140Z,18.47
2022-09-20T11:18:45.367Z,18.55
2022-09-20T11:21:23.286Z,18.64
2022-09-20T11:23:58.346Z,18.15
2022-09-20T11:26:34.200Z,17.68
2022-09-20T11:29:10.511Z,16.72
2022-09-20T11:31:45.083Z,17.35
2022-09-20T11:34:21.703Z,17.58
2022-09-20T11:36:57.679Z,17.04
2022-09-20T11:39:31.692Z,17.19
2022-09-20T11:42:02.970Z,17.08
2022-09-20T11:44:32.377Z,16.88
2022-09-20T11:47:05.222Z,17.50
2022-09-20T11:49:42.126Z,16.69
2022-09-20T11:52:28.844Z,16.85
2022-09-20T11:55:19.180Z,16.49
2022-09-20T11:58:01.961Z,17.41
2022-09-20T12:00:34.724Z,17.27
2022-09-20T12:03:07.675Z,17.51
2022-09-20T12:05:39.374Z,17.34
2022-09-20T12:08:22.042Z,17.30
2022-09-20T12:10:59.672Z,17.40
2022-09-20T12:13:30.018Z,17.33
2022-09-20T12:16:05.419Z,17.32
2022-09-20T12:18:49.582Z,17.81
2022-09-20T12:21:20.853Z,17.86
2022-09-20T12:24:21.588Z,17.40
2022-09-20T12:26:52.269Z,17.15
2022-09-20T12:30:11.263Z,17.94
2022-09-20T12:32:50.793Z,18.16
2022-09-20T12:35:59.472Z,18.72
2022-09-20T12:39:04.486Z,18.38
2022-09-20T12:41:52.405Z,18.38
2022-09-20T12:44:33.896Z,17.52
2022-09-20T12:47:04.812Z,16.73
2022-09-20T12:49:56.366Z,16.79
2022-09-20T12:52:57.034Z,16.90
2022-09-20T12:55:50.283Z,17.08
2022-09-20T12:58:28.158Z,17.30
2022-09-20T13:01:34.229Z,16.83
2022-09-20T13:04:55.443Z,17.02
2022-09-20T13:07:45.292Z,17.07
2022-09-20T13:10:33.771Z,17.22
2022-09-20T13:13:15.308Z,17.20
2022-09-20T13:15:59.534Z,17.05
2022-09-20T13:18:29.753Z,17.45
2022-09-20T13:21:06.725Z,17.09
2022-09-20T13:23:48.050Z,16.82
2022-09-20T13:26:25.907Z,16.72
2022-09-20T13:28:57.172Z,16.63
2022-09-20T13:31:36.013Z,16.72
2022-09-20T13:34:21.879Z,16.48
2022-09-20T13:36:56.376Z,16.59
2022-09-20T13:39:36.975Z,16.38
2022-09-20T13:42:16.431Z,16.66
2022-09-20T13:44:45.359Z,16.82
2022-09-20T13:47:24.031Z,17.24
2022-09-20T13:50:00.622Z,16.80
2022-09-20T13:52:31.710Z,16.93
2022-09-20T13:55:01.705Z,17.14
2022-09-20T13:57:32.061Z,16.99
2022-09-20T14:00:05.285Z,16.96
2022-09-20T14:02:40.571Z,16.93
2022-09-20T14:05:18.341Z,17.01
2022-09-20T14:07:48.657Z,17.06
2022-09-20T14:10:37.727Z,17.08
2022-09-20T14:13:09.697Z,16.53
2022-09-20T14:15:43.817Z,16.28
2022-09-20T14:18:15.617Z,16.70
2022-09-20T14:20:49.270Z,16.64
2022-09-20T14:23:23.809Z,16.63
2022-09-20T14:26:23.049Z,17.15
2022-09-20T14:28:51.688Z,16.74
2022-09-20T14:31:24.928Z,16.84
2022-09-20T14:33:56.211Z,17.09
2022-09-20T14:36:27.682Z,16.64
2022-09-20T14:39:04.118Z,16.48
2022-09-20T14:41:36.925Z,16.87
2022-09-20T14:44:07.189Z,16.72
2022-09-20T14:46:40.076Z,16.56
2022-09-20T14:49:23.073Z,16.95
2022-09-20T14:51:55.207Z,16.61
2022-09-20T14:54:30.257Z,16.87
2022-09-20T14:57:30.407Z,16.85
2022-09-20T14:59:59.552Z,16.75
2022-09-20T15:02:28.464Z,16.99
2022-09-20T15:04:59.348Z,17.49
2022-09-20T15:07:28.453Z,16.79
2022-09-20T15:10:06.504Z,16.49
2022-09-20T15:12:36.652Z,16.64
2022-09-20T15:15:10.919Z,16.37
2022-09-20T15:17:39.669Z,16.38
2022-09-20T15:20:13.774Z,16.11
2022-09-20T15:22:43.203Z,16.07
2022-09-20T15:25:16.285Z,16.14
2022-09-20T15:27:47.696Z,15.93
2022-09-20T15:30:19.736Z,15.84
2022-09-20T15:32:49.008Z,15.83
2022-09-20T15:35:17.725Z,15.88
2022-09-20T15:37:46.607Z,16.12
2022-09-20T15:40:15.481Z,16.14
2022-09-20T15:42:44.317Z,16.53
2022-09-20T15:45:16.710Z,16.24
2022-09-20T15:47:50.529Z,16.05
2022-09-20T15:50:23.477Z,16.22
2022-09-20T15:52:59.955Z,16.17
2022-09-20T15:55:28.874Z,16.24
2022-09-20T15:57:57.479Z,15.29
2022-09-20T16:00:27.550Z,15.61
2022-09-20T16:02:57.301Z,15.44
2022-09-20T16:05:25.987Z,15.61
2022-09-20T16:07:54.621Z,15.53
2022-09-20T16:10:23.275Z,15.81
2022-09-20T16:12:52.089Z,15.55
2022-09-20T16:15:20.576Z,15.29
2022-09-20T16:18:08.939Z,15.29
2022-09-20T16:20:42.895Z,15.00
2022-09-20T16:23:17.351Z,15.11
2022-09-20T16:26:01.646Z,14.99
2022-09-20T16:28:37.535Z,15.18
2022-09-20T16:31:06.744Z,14.73
2022-09-20T16:33:36.748Z,14.80
2022-09-20T16:36:05.678Z,14.69
2022-09-20T16:38:35.110Z,15.33
2022-09-20T16:41:05.841Z,14.79
2022-09-20T16:43:35.345Z,14.88
2022-09-20T16:46:12.141Z,14.63
2022-09-20T16:48:42.756Z,14.56
2022-09-20T16:51:15.587Z,14.18
2022-09-20T16:53:55.827Z,14.13
2022-09-20T16:56:29.434Z,14.25
2022-09-20T16:58:58.320Z,14.09
2022-09-20T17:01:26.989Z,13.74
2022-09-20T17:04:05.597Z,13.54
2022-09-20T17:06:35.532Z,14.20
2022-09-20T17:09:10.323Z,14.21
2022-09-20T17:11:48.517Z,14.21
2022-09-20T17:14:28.144Z,14.10
2022-09-20T17:16:59.605Z,14.04
2022-09-20T17:19:30.012Z,13.97
2022-09-20T17:22:03.921Z,13.89
2022-09-20T17:24:36.050Z,13.99
2022-09-20T17:27:10.009Z,13.61
2022-09-20T17:29:45.639Z,13.72
2022-09-20T17:32:14.665Z,13.82
2022-09-20T17:34:46.726Z,13.97
2022-09-20T17:37:20.656Z,13.98
2022-09-20T17:39:50.457Z,13.73
2022-09-20T17:42:24.953Z,13.84
2022-09-20T17:44:55.665Z,13.70
2022-09-20T17:47:30.825Z,13.64
2022-09-20T17:50:01.502Z,13.47
2022-09-20T17:52:31.903Z,13.40
2022-09-20T17:55:05.479Z,13.11
2022-09-20T17:58:15.683Z,13.21
2022-09-20T18:01:12.334Z,13.60
2022-09-20T18:03:43.417Z,13.48
2022-09-20T18:06:19.383Z,13.50
2022-09-20T18:08:52.583Z,13.21
2022-09-20T18:11:23.373Z,13.12
2022-09-20T18:13:53.609Z,13.01
2022-09-20T18:16:23.439Z,13.27
2022-09-20T18:18:52.305Z,13.39
2022-09-20T18:21:23.936Z,13.41
2022-09-20T18:23:54.064Z,13.35
2022-09-20T18:26:26.769Z,13.31
2022-09-20T18:28:58.237Z,13.22
2022-09-20T18:31:30.069Z,13.08
2022-09-20T18:34:00.901Z,13.09
2022-09-20T18:36:35.162Z,13.03
2022-09-20T18:39:04.157Z,13.19
2022-09-20T18:41:33.845Z,13.67
2022-09-20T18:44:04.165Z,13.76
2022-09-20T18:46:32.572Z,13.91
2022-09-20T18:49:04.751Z,13.76
2022-09-20T18:51:39.192Z,13.85
2022-09-20T18:54:10.257Z,13.79
2022-09-20T18:56:39.327Z,13.82
2022-09-20T18:59:08.406Z,13.85
2022-09-20T19:01:45.358Z,13.44
2022-09-20T19:04:24.119Z,13.64
2022-09-20T19:07:00.667Z,13.43
2022-09-20T19:09:36.528Z,13.38
2022-09-20T19:12:08.655Z,13.53
2022-09-20T19:14:45.471Z,13.62
2022-09-20T19:17:17.719Z,13.66
2022-09-20T19:19:51.523Z,13.38
2022-09-20T19:22:28.220Z,13.52
2022-09-20T19:25:18.679Z,13.52
2022-09-20T19:27:51.863Z,13.13
2022-09-20T19:30:20.550Z,13.34
2022-09-20T19:32:48.960Z,13.40
2022-09-20T19:35:20.106Z,13.65
2022-09-20T19:38:02.349Z,13.53
2022-09-20T19:40:36.377Z,13.74
2022-09-20T19:43:13.301Z,13.96
2022-09-20T19:45:46.951Z,14.01
2022-09-20T19:48:18.598Z,13.81
2022-09-20T19:50:47.421Z,13.99
2022-09-20T19:53:17.795Z,13.85
2022-09-20T19:55:48.273Z,13.93
2022-09-20T19:58:16.693Z,14.11
2022-09-20T20:00:45.584Z,14.03
2022-09-20T20:03:14.032Z,13.95
2022-09-20T20:05:44.243Z,13.66
2022-09-20T20:08:15.800Z,13.57
2022-09-20T20:10:51.146Z,13.69
2022-09-20T20:13:42.081Z,13.74
2022-09-20T20:16:13.693Z,13.85
2022-09-20T20:18:46.495Z,13.51
2022-09-20T20:21:19.978Z,13.52
2022-09-20T20:23:58.860Z,13.52
2022-09-20T20:26:28.618Z,13.26
2022-09-20T20:28:56.761Z,13.02
2022-09-20T20:31:24.911Z,13.17
2022-09-20T20:33:54.742Z,13.16
2022-09-20T20:36:22.841Z,12.78
2022-09-20T20:38:53.138Z,12.64
2022-09-20T20:41:22.449Z,12.75
2022-09-20T20:43:56.227Z,12.30
2022-09-20T20:46:25.279Z,12.31
2022-09-20T20:48:53.525Z,12.25
2022-09-20T20:51:22.534Z,11.98
2022-09-20T20:53:51.696Z,10.95
2022-09-20T20:56:20.866Z,11.03
2022-09-20T20:58:50.060Z,11.44
2022-09-20T21:01:20.720Z,11.63
2022-09-20T21:03:49.885Z,11.72
2022-09-20T21:06:18.379Z,11.48
2022-09-20T21:08:49.538Z,11.72
2022-09-20T21:11:19.960Z,11.65
2022-09-20T21:13:49.124Z,11.48
2022-09-20T21:16:18.003Z,11.46
2022-09-20T21:18:48.740Z,11.32
2022-09-20T21:21:18.291Z,11.12
2022-09-20T21:23:47.357Z,11.43
2022-09-20T21:26:16.478Z,11.52
2022-09-20T21:28:45.844Z,11.36
2022-09-20T21:31:14.431Z,11.40
2022-09-20T21:33:43.335Z,11.52
2022-09-20T21:36:14.070Z,11.08
2022-09-20T21:38:42.609Z,10.52
2022-09-20T21:41:11.923Z,10.37
2022-09-20T21:43:41.981Z,10.72
2022-09-20T21:46:13.851Z,10.82
2022-09-20T21:48:42.324Z,11.04
2022-09-20T21:51:11.660Z,11.27
2022-09-20T21:53:41.337Z,11.39
2022-09-20T21:56:10.545Z,11.71
2022-09-20T21:58:40.114Z,12.03
2022-09-20T22:01:11.466Z,12.08
2022-09-20T22:03:41.004Z,12.00
2022-09-20T22:06:10.633Z,11.93
2022-09-20T22:08:39.310Z,12.10
2022-09-20T22:11:13.507Z,12.24
2022-09-20T22:13:43.386Z,12.15
2022-09-20T22:16:12.420Z,12.20
2022-09-20T22:18:41.842Z,12.13
2022-09-20T22:21:13.281Z,12.07
2022-09-20T22:23:41.876Z,12.34
2022-09-20T22:26:12.153Z,12.26
2022-09-20T22:28:40.855Z,12.11
2022-09-20T22:31:09.967Z,12.06
2022-09-20T22:33:41.852Z,12.03
2022-09-20T22:36:14.142Z,12.27
2022-09-20T22:38:42.544Z,12.41
2022-09-20T22:41:12.779Z,12.39
2022-09-20T22:43:41.869Z,12.34
2022-09-20T22:46:11.264Z,12.46
2022-09-20T22:48:40.110Z,12.49
2022-09-20T22:51:10.618Z,12.58
2022-09-20T22:53:38.890Z,12.50
2022-09-20T22:56:07.879Z,12.45
2022-09-20T22:58:38.643Z,12.63
2022-09-20T23:01:08.049Z,12.61
2022-09-20T23:03:36.435Z,12.60
2022-09-20T23:06:04.693Z,12.44
2022-09-20T23:08:33.460Z,12.46
2022-09-20T23:11:02.359Z,12.46
2022-09-20T23:13:30.703Z,12.43
2022-09-20T23:16:01.267Z,12.50
2022-09-20T23:18:29.647Z,12.26
2022-09-20T23:21:01.230Z,11.99
2022-09-20T23:23:29.611Z,12.02
2022-09-20T23:26:04.088Z,12.34
2022-09-20T23:28:32.221Z,12.50
2022-09-20T23:31:04.770Z,12.61
2022-09-20T23:33:33.228Z,12.40
2022-09-20T23:36:01.475Z,12.12
2022-09-20T23:38:29.632Z,12.23
2022-09-20T23:41:02.780Z,12.32
2022-09-20T23:43:31.043Z,12.44
2022-09-20T23:45:59.469Z,12.57
2022-09-20T23:48:29.073Z,12.70
2022-09-20T23:50:57.386Z,12.75
2022-09-20T23:53:25.901Z,12.42
2022-09-20T23:55:54.082Z,12.49
2022-09-20T23:58:22.251Z,12.28
